createdAt,value
2019-04-04T00:00:04.316Z,0
2019-04-04T00:01:06.688Z,0
2019-04-04T00:02:08.734Z,0
2019-04-04T00:03:10.781Z,0
2019-04-04T00:04:12.847Z,0
2019-04-04T00:05:15.586Z,0
2019-04-04T00:06:17.647Z,0
2019-04-04T00:07:19.977Z,0
2019-04-04T00:08:22.306Z,0
2019-04-04T00:09:24.346Z,0
2019-04-04T00:10:26.407Z,0
2019-04-04T00:11:28.459Z,0
2019-04-04T00:12:31.190Z,0
2019-04-04T00:13:33.248Z,0
2019-04-04T00:14:35.577Z,0
2019-04-04T00:15:37.641Z,0
2019-04-04T00:16:39.687Z,0
2019-04-04T00:17:41.723Z,0
2019-04-04T00:18:44.049Z,0
2019-04-04T00:19:46.106Z,0
2019-04-04T00:20:48.153Z,0
2019-04-04T00:21:50.208Z,0
2019-04-04T00:22:52.258Z,0
2019-04-04T00:23:54.331Z,0
2019-04-04T00:24:56.376Z,0
2019-04-04T00:25:58.810Z,0
2019-04-04T00:27:01.120Z,0
2019-04-04T00:28:03.164Z,0
2019-04-04T00:29:05.499Z,0
2019-04-04T00:30:07.829Z,0
2019-04-04T00:31:10.270Z,0
2019-04-04T00:32:12.324Z,0
2019-04-04T00:33:14.369Z,0
2019-04-04T00:34:16.697Z,0
2019-04-04T00:35:18.753Z,0
2019-04-04T00:36:20.782Z,0
2019-04-04T00:37:22.814Z,0
2019-04-04T00:38:24.917Z,0
2019-04-04T00:39:26.942Z,0
2019-04-04T00:40:29.001Z,0
2019-04-04T00:41:31.598Z,0
2019-04-04T00:42:33.642Z,0
2019-04-04T00:43:35.670Z,0
2019-04-04T00:44:37.712Z,0
2019-04-04T00:45:39.805Z,0
2019-04-04T00:46:41.938Z,0
2019-04-04T00:47:44.371Z,0
2019-04-04T00:48:46.497Z,0
2019-04-04T00:49:48.526Z,0
2019-04-04T00:50:50.859Z,0
2019-04-04T00:51:53.280Z,0
2019-04-04T00:52:55.307Z,0
2019-04-04T00:53:57.339Z,0
2019-04-04T00:54:59.379Z,0
2019-04-04T00:56:01.438Z,0
2019-04-04T00:57:03.756Z,0
2019-04-04T00:58:05.790Z,0
2019-04-04T00:59:07.837Z,0
2019-04-04T01:00:09.862Z,0
2019-04-04T01:01:11.938Z,0
2019-04-04T01:02:14.366Z,0
2019-04-04T01:03:16.699Z,0
2019-04-04T01:04:18.755Z,0
2019-04-04T01:05:20.785Z,0
2019-04-04T01:06:22.821Z,0
2019-04-04T01:07:24.846Z,0
2019-04-04T01:08:26.889Z,0
2019-04-04T01:09:28.926Z,0
2019-04-04T01:10:31.032Z,0
2019-04-04T01:11:33.459Z,0
2019-04-04T01:12:35.780Z,0
2019-04-04T01:13:37.904Z,0
2019-04-04T01:14:40.331Z,0
2019-04-04T01:15:42.404Z,0
2019-04-04T01:16:44.426Z,0
2019-04-04T01:17:46.874Z,0
2019-04-04T01:18:48.933Z,0
2019-04-04T01:19:51.348Z,0
2019-04-04T01:20:53.402Z,0
2019-04-04T01:21:55.836Z,0
2019-04-04T01:22:57.998Z,0
2019-04-04T01:24:00.901Z,0
2019-04-04T01:25:02.962Z,0
2019-04-04T01:26:05.738Z,0
2019-04-04T01:27:08.528Z,0
2019-04-04T01:28:11.148Z,0
2019-04-04T01:29:13.490Z,0
2019-04-04T01:30:15.563Z,0
2019-04-04T01:31:17.600Z,0
2019-04-04T01:32:19.639Z,0
2019-04-04T01:33:21.976Z,0
2019-04-04T01:34:24.024Z,0
2019-04-04T01:35:26.058Z,0
2019-04-04T01:36:28.372Z,0
2019-04-04T01:37:30.825Z,0
2019-04-04T01:38:32.874Z,0
2019-04-04T01:39:35.190Z,0
2019-04-04T01:40:37.212Z,0
2019-04-04T01:41:39.283Z,0
2019-04-04T01:42:41.897Z,0
2019-04-04T01:43:43.942Z,0
2019-04-04T01:44:45.982Z,0
2019-04-04T01:45:48.290Z,0
2019-04-04T01:46:50.623Z,0
2019-04-04T01:47:52.663Z,0
2019-04-04T01:48:54.725Z,0
2019-04-04T01:49:56.770Z,0
2019-04-04T01:50:58.811Z,0
2019-04-04T01:52:00.843Z,0
2019-04-04T01:53:02.872Z,0
2019-04-04T01:54:04.928Z,0
2019-04-04T01:55:07.271Z,0
2019-04-04T01:56:09.700Z,0
2019-04-04T01:57:11.748Z,0
2019-04-04T01:58:13.814Z,0
2019-04-04T01:59:15.878Z,0
2019-04-04T02:00:17.927Z,0
2019-04-04T02:01:20.234Z,0
2019-04-04T02:02:22.394Z,0
2019-04-04T02:03:24.630Z,0
2019-04-04T02:04:26.717Z,0
2019-04-04T02:05:28.888Z,0
2019-04-04T02:06:30.933Z,0
2019-04-04T02:07:32.982Z,0
2019-04-04T02:08:35.014Z,0
2019-04-04T02:09:37.046Z,0
2019-04-04T02:10:39.797Z,0
2019-04-04T02:11:42.110Z,0
2019-04-04T02:12:44.148Z,0
2019-04-04T02:13:46.452Z,0
2019-04-04T02:14:48.496Z,0
2019-04-04T02:15:50.533Z,0
2019-04-04T02:16:52.893Z,0
2019-04-04T02:17:54.927Z,0
2019-04-04T02:18:56.948Z,0
2019-04-04T02:19:59.015Z,0
2019-04-04T02:21:01.049Z,0
2019-04-04T02:22:03.113Z,0
2019-04-04T02:23:05.134Z,0
2019-04-04T02:24:07.175Z,0
2019-04-04T02:25:09.541Z,0
2019-04-04T02:26:11.967Z,0
2019-04-04T02:27:14.297Z,0
2019-04-04T02:28:16.632Z,0
2019-04-04T02:29:18.683Z,0
2019-04-04T02:30:20.740Z,0
2019-04-04T02:31:23.527Z,0
2019-04-04T02:32:28.983Z,0
2019-04-04T02:33:34.323Z,0
2019-04-04T02:34:39.597Z,0
2019-04-04T02:35:45.036Z,0
2019-04-04T02:36:51.414Z,0
2019-04-04T02:37:57.260Z,0
2019-04-04T02:39:02.198Z,0
2019-04-04T02:40:11.521Z,0
2019-04-04T02:41:17.655Z,0
2019-04-04T02:42:23.615Z,0
2019-04-04T02:43:29.771Z,0
2019-04-04T02:44:34.319Z,0
2019-04-04T02:45:40.091Z,0
2019-04-04T02:46:47.606Z,0
2019-04-04T02:47:52.601Z,0
2019-04-04T02:48:58.119Z,0
2019-04-04T02:50:03.704Z,0
2019-04-04T02:51:09.732Z,0
2019-04-04T02:52:15.745Z,0
2019-04-04T02:53:21.663Z,0
2019-04-04T02:54:27.025Z,0
2019-04-04T02:55:32.889Z,0
2019-04-04T02:56:37.552Z,0
2019-04-04T02:57:43.630Z,0
2019-04-04T02:58:48.717Z,0
2019-04-04T02:59:55.749Z,0
2019-04-04T03:01:02.002Z,0
2019-04-04T03:02:07.844Z,0
2019-04-04T03:03:10.842Z,0
2019-04-04T03:04:15.528Z,0
2019-04-04T03:05:21.555Z,0
2019-04-04T03:06:26.815Z,0
2019-04-04T03:07:32.304Z,0
2019-04-04T03:08:39.241Z,0
2019-04-04T03:09:44.992Z,0
2019-04-04T03:10:50.895Z,0
2019-04-04T03:11:56.108Z,0
2019-04-04T03:13:00.613Z,0
2019-04-04T03:14:06.580Z,0
2019-04-04T03:15:11.707Z,0
2019-04-04T03:16:14.424Z,0
2019-04-04T03:17:16.510Z,0
2019-04-04T03:18:19.280Z,0
2019-04-04T03:19:21.635Z,0
2019-04-04T03:20:24.059Z,0
2019-04-04T03:21:26.200Z,0
2019-04-04T03:22:29.576Z,0
2019-04-04T03:23:35.102Z,0
2019-04-04T03:24:46.857Z,0
2019-04-04T03:25:49.482Z,0
2019-04-04T03:26:55.447Z,0
2019-04-04T03:28:00.472Z,0
2019-04-04T03:29:11.590Z,0
2019-04-04T03:30:18.947Z,0
2019-04-04T03:31:21.328Z,0
2019-04-04T03:32:24.089Z,0
2019-04-04T03:33:33.843Z,0
2019-04-04T03:34:36.606Z,0
2019-04-04T03:35:39.035Z,0
2019-04-04T03:36:41.357Z,0
2019-04-04T03:37:47.593Z,0
2019-04-04T03:38:49.655Z,0
2019-04-04T03:39:54.657Z,0
2019-04-04T03:40:59.941Z,0
2019-04-04T03:42:06.902Z,0
2019-04-04T03:43:09.332Z,0
2019-04-04T03:44:11.372Z,0
2019-04-04T03:45:13.441Z,0
2019-04-04T03:46:15.773Z,0
2019-04-04T03:47:18.411Z,0
2019-04-04T03:48:20.857Z,0
2019-04-04T03:49:25.875Z,0
2019-04-04T03:50:31.903Z,0
2019-04-04T03:51:39.710Z,0
2019-04-04T03:52:45.998Z,0
2019-04-04T03:53:51.750Z,0
2019-04-04T03:54:57.932Z,0
2019-04-04T03:56:02.767Z,0
2019-04-04T03:57:05.474Z,0
2019-04-04T03:58:08.231Z,0
2019-04-04T03:59:11.122Z,0
2019-04-04T04:00:13.180Z,0
2019-04-04T04:01:15.247Z,0
2019-04-04T04:02:20.822Z,0
2019-04-04T04:03:24.723Z,0
2019-04-04T04:04:29.609Z,0
2019-04-04T04:05:41.995Z,0
2019-04-04T04:06:45.100Z,0
2019-04-04T04:07:50.435Z,0
2019-04-04T04:08:56.736Z,0
2019-04-04T04:10:01.655Z,0
2019-04-04T04:11:07.565Z,0
2019-04-04T04:12:13.393Z,0
2019-04-04T04:13:18.671Z,0
2019-04-04T04:14:24.194Z,0
2019-04-04T04:15:32.044Z,0
2019-04-04T04:16:37.368Z,0
2019-04-04T04:17:39.429Z,0
2019-04-04T04:18:41.525Z,0
2019-04-04T04:19:43.578Z,0
2019-04-04T04:20:45.994Z,0
2019-04-04T04:21:48.487Z,0
2019-04-04T04:22:52.792Z,0
2019-04-04T04:23:59.765Z,0
2019-04-04T04:25:04.972Z,0
2019-04-04T04:26:11.222Z,0
2019-04-04T04:27:17.127Z,0
2019-04-04T04:28:22.606Z,0
2019-04-04T04:29:29.343Z,0
2019-04-04T04:30:32.074Z,0
2019-04-04T04:31:34.108Z,0
2019-04-04T04:32:39.628Z,0
2019-04-04T04:33:42.338Z,0
2019-04-04T04:34:45.049Z,1
2019-04-04T04:35:47.117Z,1
2019-04-04T04:36:49.788Z,1
2019-04-04T04:37:55.182Z,1
2019-04-04T04:39:01.718Z,1
2019-04-04T04:40:04.616Z,1
2019-04-04T04:41:06.640Z,1
2019-04-04T04:42:08.995Z,1
2019-04-04T04:43:15.036Z,1
2019-04-04T04:44:17.810Z,2
2019-04-04T04:45:19.887Z,2
2019-04-04T04:46:22.220Z,2
2019-04-04T04:47:25.665Z,2
2019-04-04T04:48:33.491Z,2
2019-04-04T04:49:37.539Z,3
2019-04-04T04:50:42.510Z,3
2019-04-04T04:51:45.502Z,3
2019-04-04T04:52:48.759Z,3
2019-04-04T04:53:52.971Z,3
2019-04-04T04:54:56.635Z,4
2019-04-04T04:56:02.627Z,4
2019-04-04T04:57:06.212Z,4
2019-04-04T04:58:12.698Z,5
2019-04-04T04:59:15.240Z,5
2019-04-04T05:00:18.045Z,5
2019-04-04T05:01:20.451Z,5
2019-04-04T05:02:24.127Z,6
2019-04-04T05:03:26.153Z,6
2019-04-04T05:04:30.762Z,6
2019-04-04T05:05:33.843Z,7
2019-04-04T05:06:37.526Z,7
2019-04-04T05:07:40.269Z,7
2019-04-04T05:08:42.881Z,8
2019-04-04T05:09:46.469Z,8
2019-04-04T05:10:48.484Z,8
2019-04-04T05:11:52.370Z,8
2019-04-04T05:12:55.027Z,8
2019-04-04T05:13:59.836Z,9
2019-04-04T05:15:03.670Z,9
2019-04-04T05:16:10.369Z,9
2019-04-04T05:17:12.792Z,10
2019-04-04T05:18:18.093Z,10
2019-04-04T05:19:21.149Z,10
2019-04-04T05:20:31.073Z,11
2019-04-04T05:21:35.846Z,11
2019-04-04T05:22:41.586Z,11
2019-04-04T05:23:48.177Z,12
2019-04-04T05:25:10.483Z,12
2019-04-04T05:26:12.545Z,12
2019-04-04T05:27:14.585Z,13
2019-04-04T05:28:16.684Z,13
2019-04-04T05:29:18.835Z,13
2019-04-04T05:30:22.000Z,14
2019-04-04T05:31:24.035Z,14
2019-04-04T05:32:26.145Z,14
2019-04-04T05:33:32.993Z,15
2019-04-04T05:34:35.098Z,15
2019-04-04T05:35:39.520Z,15
2019-04-04T05:36:41.878Z,16
2019-04-04T05:37:43.978Z,16
2019-04-04T05:38:48.569Z,16
2019-04-04T05:39:57.017Z,17
2019-04-04T05:40:59.076Z,18
2019-04-04T05:42:02.326Z,18
2019-04-04T05:43:06.033Z,18
2019-04-04T05:44:11.319Z,19
2019-04-04T05:45:16.519Z,20
2019-04-04T05:46:21.196Z,20
2019-04-04T05:47:25.315Z,20
2019-04-04T05:48:30.784Z,21
2019-04-04T05:49:32.864Z,22
2019-04-04T05:50:35.356Z,22
2019-04-04T05:51:38.007Z,23
2019-04-04T05:52:40.167Z,23
2019-04-04T05:53:42.239Z,24
2019-04-04T05:54:44.314Z,24
2019-04-04T05:55:46.707Z,24
2019-04-04T05:56:51.488Z,24
2019-04-04T05:57:54.215Z,24
2019-04-04T05:58:56.344Z,24
2019-04-04T05:59:58.444Z,25
2019-04-04T06:01:03.726Z,25
2019-04-04T06:02:05.821Z,25
2019-04-04T06:03:07.896Z,24
2019-04-04T06:04:10.042Z,25
2019-04-04T06:05:12.100Z,25
2019-04-04T06:06:14.197Z,25
2019-04-04T06:07:18.210Z,25
2019-04-04T06:08:20.588Z,25
2019-04-04T06:09:22.995Z,25
2019-04-04T06:10:25.018Z,25
2019-04-04T06:11:27.063Z,25
2019-04-04T06:12:29.118Z,25
2019-04-04T06:13:31.169Z,25
2019-04-04T06:14:33.216Z,26
2019-04-04T06:15:35.274Z,26
2019-04-04T06:16:37.307Z,25
2019-04-04T06:17:41.269Z,25
2019-04-04T06:18:45.030Z,25
2019-04-04T06:19:47.053Z,26
2019-04-04T06:20:50.198Z,26
2019-04-04T06:21:52.227Z,26
2019-04-04T06:22:54.279Z,26
2019-04-04T06:23:57.769Z,27
2019-04-04T06:25:01.137Z,27
2019-04-04T06:26:09.517Z,28
2019-04-04T06:27:11.566Z,28
2019-04-04T06:28:13.952Z,29
2019-04-04T06:29:19.054Z,30
2019-04-04T06:30:21.911Z,31
2019-04-04T06:31:32.235Z,32
2019-04-04T06:32:34.278Z,33
2019-04-04T06:33:37.436Z,33
2019-04-04T06:34:39.497Z,34
2019-04-04T06:35:41.538Z,35
2019-04-04T06:36:43.614Z,35
2019-04-04T06:37:52.443Z,35
2019-04-04T06:38:55.713Z,36
2019-04-04T06:40:00.589Z,36
2019-04-04T06:41:03.172Z,37
2019-04-04T06:42:05.342Z,36
2019-04-04T06:43:13.070Z,36
2019-04-04T06:44:15.122Z,36
2019-04-04T06:45:17.454Z,36
2019-04-04T06:46:24.272Z,37
2019-04-04T06:47:27.490Z,38
2019-04-04T06:48:35.188Z,39
2019-04-04T06:49:37.523Z,39
2019-04-04T06:50:44.194Z,39
2019-04-04T06:51:48.677Z,38
2019-04-04T06:52:52.298Z,38
2019-04-04T06:53:55.947Z,38
2019-04-04T06:54:59.471Z,38
2019-04-04T06:56:02.338Z,38
2019-04-04T06:57:06.299Z,38
2019-04-04T06:58:10.864Z,37
2019-04-04T06:59:13.793Z,37
2019-04-04T07:00:17.749Z,38
2019-04-04T07:01:26.439Z,37
2019-04-04T07:02:28.536Z,37
2019-04-04T07:03:30.651Z,38
2019-04-04T07:04:37.481Z,39
2019-04-04T07:05:40.207Z,41
2019-04-04T07:06:44.380Z,46
2019-04-04T07:07:46.456Z,49
2019-04-04T07:08:48.500Z,50
2019-04-04T07:09:52.136Z,50
2019-04-04T07:11:22.308Z,48
2019-04-04T07:12:30.078Z,43
2019-04-04T07:13:44.061Z,42
2019-04-04T07:14:51.000Z,42
2019-04-04T07:16:09.305Z,44
2019-04-04T07:17:11.893Z,46
2019-04-04T07:18:14.243Z,48
2019-04-04T07:19:16.507Z,48
2019-04-04T07:20:19.066Z,47
2019-04-04T07:21:21.877Z,46
2019-04-04T07:22:26.620Z,48
2019-04-04T07:23:29.720Z,49
2019-04-04T07:24:32.934Z,49
2019-04-04T07:25:41.427Z,51
2019-04-04T07:26:47.191Z,54
2019-04-04T07:27:49.590Z,54
2019-04-04T07:28:55.453Z,54
2019-04-04T07:29:58.451Z,55
2019-04-04T07:31:03.562Z,55
2019-04-04T07:32:10.606Z,56
2019-04-04T07:33:14.046Z,54
2019-04-04T07:34:16.094Z,54
2019-04-04T07:35:22.453Z,55
2019-04-04T07:36:24.755Z,60
2019-04-04T07:37:26.839Z,66
2019-04-04T07:38:30.506Z,71
2019-04-04T07:39:33.939Z,72
2019-04-04T07:40:38.763Z,74
2019-04-04T07:41:46.148Z,74
2019-04-04T07:42:49.271Z,75
2019-04-04T07:43:53.750Z,77
2019-04-04T07:44:56.657Z,79
2019-04-04T07:46:18.377Z,83
2019-04-04T07:47:20.434Z,84
2019-04-04T07:48:22.545Z,85
2019-04-04T07:49:25.666Z,84
2019-04-04T07:50:28.734Z,95
2019-04-04T07:51:32.109Z,159
2019-04-04T07:52:34.929Z,194
2019-04-04T07:53:38.268Z,161
2019-04-04T07:54:40.513Z,203
2019-04-04T07:55:44.418Z,203
2019-04-04T07:56:50.045Z,203
2019-04-04T07:57:52.934Z,201
2019-04-04T07:58:55.372Z,183
2019-04-04T07:59:57.483Z,172
2019-04-04T08:00:59.600Z,173
2019-04-04T08:02:01.717Z,148
2019-04-04T08:03:04.110Z,139
2019-04-04T08:04:08.377Z,141
2019-04-04T08:05:13.949Z,129
2019-04-04T08:06:16.385Z,115
2019-04-04T08:07:18.531Z,124
2019-04-04T08:08:20.640Z,134
2019-04-04T08:09:22.761Z,143
2019-04-04T08:10:24.873Z,137
2019-04-04T08:11:27.331Z,141
2019-04-04T08:12:29.444Z,121
2019-04-04T08:13:31.858Z,118
2019-04-04T08:14:34.265Z,100
2019-04-04T08:15:37.370Z,98
2019-04-04T08:16:39.483Z,91
2019-04-04T08:17:41.607Z,82
2019-04-04T08:18:43.721Z,74
2019-04-04T08:19:45.826Z,82
2019-04-04T08:20:48.224Z,85
2019-04-04T08:21:50.340Z,87
2019-04-04T08:22:53.118Z,87
2019-04-04T08:23:55.244Z,87
2019-04-04T08:24:57.385Z,78
2019-04-04T08:25:59.509Z,75
2019-04-04T08:27:01.641Z,71
2019-04-04T08:28:04.161Z,68
2019-04-04T08:29:06.267Z,67
2019-04-04T08:30:08.436Z,67
2019-04-04T08:31:11.554Z,66
2019-04-04T08:32:13.669Z,66
2019-04-04T08:33:16.073Z,65
2019-04-04T08:34:18.583Z,65
2019-04-04T08:35:20.698Z,65
2019-04-04T08:36:22.841Z,65
2019-04-04T08:37:24.991Z,67
2019-04-04T08:38:27.436Z,71
2019-04-04T08:39:29.574Z,76
2019-04-04T08:40:32.372Z,69
2019-04-04T08:41:34.769Z,67
2019-04-04T08:42:36.887Z,67
2019-04-04T08:43:39.279Z,70
2019-04-04T08:44:41.776Z,77
2019-04-04T08:45:44.279Z,88
2019-04-04T08:46:46.395Z,129
2019-04-04T08:47:48.784Z,111
2019-04-04T08:48:50.907Z,114
2019-04-04T08:49:53.105Z,133
2019-04-04T08:50:55.237Z,180
2019-04-04T08:51:57.651Z,265
2019-04-04T08:52:59.773Z,266
2019-04-04T08:54:01.913Z,261
2019-04-04T08:55:04.635Z,258
2019-04-04T08:56:06.773Z,291
2019-04-04T08:57:08.884Z,282
2019-04-04T08:58:10.998Z,258
2019-04-04T08:59:13.117Z,273
2019-04-04T09:00:15.232Z,268
2019-04-04T09:01:17.346Z,263
2019-04-04T09:02:19.869Z,263
2019-04-04T09:03:21.984Z,260
2019-04-04T09:04:25.658Z,216
2019-04-04T09:05:27.786Z,227
2019-04-04T09:06:30.180Z,190
2019-04-04T09:07:32.304Z,158
2019-04-04T09:08:34.458Z,126
2019-04-04T09:09:37.024Z,97
2019-04-04T09:10:39.180Z,97
2019-04-04T09:11:41.583Z,160
2019-04-04T09:12:43.701Z,213
2019-04-04T09:13:45.815Z,239
2019-04-04T09:14:47.930Z,226
2019-04-04T09:15:50.047Z,223
2019-04-04T09:16:52.165Z,248
2019-04-04T09:17:54.301Z,235
2019-04-04T09:18:56.416Z,267
2019-04-04T09:19:58.530Z,269
2019-04-04T09:21:00.935Z,247
2019-04-04T09:22:03.063Z,281
2019-04-04T09:23:05.185Z,291
2019-04-04T09:24:07.590Z,271
2019-04-04T09:25:12.710Z,295
2019-04-04T09:26:15.134Z,285
2019-04-04T09:27:17.263Z,283
2019-04-04T09:28:19.387Z,283
2019-04-04T09:29:21.498Z,298
2019-04-04T09:30:23.619Z,238
2019-04-04T09:31:25.741Z,177
2019-04-04T09:32:27.856Z,189
2019-04-04T09:33:30.044Z,187
2019-04-04T09:34:32.739Z,234
2019-04-04T09:35:34.864Z,275
2019-04-04T09:36:37.002Z,246
2019-04-04T09:37:39.136Z,258
2019-04-04T09:38:41.267Z,252
2019-04-04T09:39:43.674Z,265
2019-04-04T09:40:45.793Z,309
2019-04-04T09:41:48.300Z,279
2019-04-04T09:42:50.857Z,272
2019-04-04T09:43:53.130Z,256
2019-04-04T09:44:55.283Z,266
2019-04-04T09:45:57.433Z,219
2019-04-04T09:47:08.138Z,135
2019-04-04T09:48:10.253Z,167
2019-04-04T09:49:14.425Z,167
2019-04-04T09:50:16.566Z,210
2019-04-04T09:51:18.703Z,259
2019-04-04T09:52:20.822Z,269
2019-04-04T09:53:22.995Z,280
2019-04-04T09:54:25.128Z,261
2019-04-04T09:55:27.266Z,202
2019-04-04T09:56:30.124Z,220
2019-04-04T09:57:32.243Z,309
2019-04-04T09:58:34.366Z,347
2019-04-04T09:59:37.084Z,313
2019-04-04T10:00:39.223Z,268
2019-04-04T10:01:41.837Z,220
2019-04-04T10:02:43.982Z,202
2019-04-04T10:03:46.104Z,241
2019-04-04T10:04:48.224Z,248
2019-04-04T10:05:50.343Z,226
2019-04-04T10:06:52.466Z,191
2019-04-04T10:07:54.589Z,174
2019-04-04T10:08:56.709Z,144
2019-04-04T10:09:58.838Z,105
2019-04-04T10:11:01.252Z,93
2019-04-04T10:12:03.393Z,91
2019-04-04T10:13:05.521Z,96
2019-04-04T10:14:07.644Z,113
2019-04-04T10:15:09.782Z,150
2019-04-04T10:16:11.922Z,136
2019-04-04T10:17:14.040Z,143
2019-04-04T10:18:16.211Z,174
2019-04-04T10:19:18.394Z,194
2019-04-04T10:20:21.098Z,175
2019-04-04T10:21:23.227Z,208
2019-04-04T10:22:25.346Z,228
2019-04-04T10:23:27.756Z,197
2019-04-04T10:24:29.885Z,168
2019-04-04T10:25:32.008Z,133
2019-04-04T10:26:34.131Z,135
2019-04-04T10:27:36.251Z,218
2019-04-04T10:28:38.664Z,262
2019-04-04T10:29:40.875Z,282
2019-04-04T10:30:42.994Z,208
2019-04-04T10:31:45.134Z,193
2019-04-04T10:32:47.263Z,197
2019-04-04T10:33:49.779Z,296
2019-04-04T10:34:51.908Z,304
2019-04-04T10:35:54.345Z,206
2019-04-04T10:36:56.460Z,135
2019-04-04T10:37:58.584Z,101
2019-04-04T10:39:00.726Z,100
2019-04-04T10:40:03.880Z,114
2019-04-04T10:41:06.017Z,132
2019-04-04T10:42:08.144Z,175
2019-04-04T10:43:10.274Z,226
2019-04-04T10:44:12.390Z,184
2019-04-04T10:45:14.577Z,117
2019-04-04T10:46:16.700Z,219
2019-04-04T10:47:18.830Z,227
2019-04-04T10:48:21.338Z,182
2019-04-04T10:49:23.469Z,117
2019-04-04T10:50:25.597Z,118
2019-04-04T10:51:27.719Z,140
2019-04-04T10:52:29.841Z,161
2019-04-04T10:53:31.994Z,187
2019-04-04T10:54:34.517Z,229
2019-04-04T10:55:37.337Z,179
2019-04-04T10:56:39.467Z,172
2019-04-04T10:57:41.600Z,328
2019-04-04T10:58:43.727Z,348
2019-04-04T10:59:45.850Z,345
2019-04-04T11:00:48.363Z,327
2019-04-04T11:01:50.881Z,271
2019-04-04T11:02:53.323Z,211
2019-04-04T11:03:55.522Z,179
2019-04-04T11:04:57.642Z,190
2019-04-04T11:05:59.767Z,203
2019-04-04T11:07:01.897Z,222
2019-04-04T11:08:04.022Z,236
2019-04-04T11:09:06.157Z,284
2019-04-04T11:10:08.325Z,325
2019-04-04T11:11:10.471Z,304
2019-04-04T11:12:12.997Z,348
2019-04-04T11:13:15.529Z,293
2019-04-04T11:14:17.651Z,315
2019-04-04T11:15:19.775Z,315
2019-04-04T11:16:32.141Z,302
2019-04-04T11:17:34.262Z,310
2019-04-04T11:18:37.202Z,314
2019-04-04T11:19:39.382Z,264
2019-04-04T11:20:41.708Z,303
2019-04-04T11:21:44.071Z,311
2019-04-04T11:22:46.319Z,301
2019-04-04T11:23:48.612Z,297
2019-04-04T11:24:51.148Z,283
2019-04-04T11:25:53.375Z,292
2019-04-04T11:26:55.783Z,292
2019-04-04T11:27:57.906Z,290
2019-04-04T11:29:00.050Z,287
2019-04-04T11:30:02.873Z,303
2019-04-04T11:31:05.006Z,302
2019-04-04T11:32:07.427Z,300
2019-04-04T11:33:09.549Z,297
2019-04-04T11:34:11.672Z,305
2019-04-04T11:35:14.224Z,306
2019-04-04T11:36:16.381Z,312
2019-04-04T11:37:18.798Z,306
2019-04-04T11:38:20.928Z,306
2019-04-04T11:39:23.059Z,308
2019-04-04T11:40:25.198Z,306
2019-04-04T11:41:27.603Z,298
2019-04-04T11:42:29.733Z,278
2019-04-04T11:43:31.865Z,296
2019-04-04T11:44:34.022Z,297
2019-04-04T11:45:36.161Z,303
2019-04-04T11:46:38.289Z,304
2019-04-04T11:47:40.691Z,295
2019-04-04T11:48:42.818Z,314
2019-04-04T11:49:44.951Z,305
2019-04-04T11:50:47.092Z,278
2019-04-04T11:51:49.220Z,272
2019-04-04T11:52:51.652Z,276
2019-04-04T11:53:54.068Z,284
2019-04-04T11:54:56.211Z,285
2019-04-04T11:55:58.634Z,273
2019-04-04T11:57:00.774Z,282
2019-04-04T11:58:02.913Z,286
2019-04-04T11:59:07.974Z,285
2019-04-04T12:00:10.585Z,289
2019-04-04T12:01:12.751Z,289
2019-04-04T12:02:14.881Z,286
2019-04-04T12:03:17.009Z,288
2019-04-04T12:04:19.141Z,285
2019-04-04T12:05:21.290Z,283
2019-04-04T12:06:24.008Z,272
2019-04-04T12:07:26.164Z,270
2019-04-04T12:08:28.590Z,284
2019-04-04T12:09:30.722Z,284
2019-04-04T12:10:32.919Z,299
2019-04-04T12:11:35.076Z,293
2019-04-04T12:12:37.299Z,288
2019-04-04T12:13:40.498Z,295
2019-04-04T12:14:43.031Z,289
2019-04-04T12:15:45.168Z,286
2019-04-04T12:16:47.370Z,280
2019-04-04T12:17:49.511Z,288
2019-04-04T12:18:52.033Z,291
2019-04-04T12:19:54.164Z,292
2019-04-04T12:20:56.688Z,279
2019-04-04T12:21:59.275Z,266
2019-04-04T12:23:01.700Z,265
2019-04-04T12:24:04.409Z,281
2019-04-04T12:25:06.835Z,279
2019-04-04T12:26:09.377Z,278
2019-04-04T12:27:11.810Z,265
2019-04-04T12:28:13.940Z,262
2019-04-04T12:29:16.071Z,262
2019-04-04T12:30:21.507Z,263
2019-04-04T12:31:24.320Z,270
2019-04-04T12:32:26.456Z,278
2019-04-04T12:33:28.599Z,278
2019-04-04T12:34:30.745Z,281
2019-04-04T12:35:32.881Z,266
2019-04-04T12:36:35.019Z,273
2019-04-04T12:37:37.555Z,266
2019-04-04T12:38:39.688Z,278
2019-04-04T12:39:45.067Z,283
2019-04-04T12:40:47.205Z,282
2019-04-04T12:41:49.343Z,270
2019-04-04T12:42:51.875Z,257
2019-04-04T12:43:54.308Z,237
2019-04-04T12:44:56.442Z,255
2019-04-04T12:45:58.574Z,267
2019-04-04T12:47:00.718Z,260
2019-04-04T12:48:02.870Z,249
2019-04-04T12:49:05.008Z,254
2019-04-04T12:50:07.477Z,251
2019-04-04T12:51:09.641Z,245
2019-04-04T12:52:12.072Z,245
2019-04-04T12:53:14.204Z,251
2019-04-04T12:54:16.338Z,251
2019-04-04T12:55:18.474Z,260
2019-04-04T12:56:20.647Z,250
2019-04-04T12:57:22.780Z,242
2019-04-04T12:58:25.199Z,236
2019-04-04T12:59:27.612Z,235
2019-04-04T13:00:29.749Z,234
2019-04-04T13:01:31.882Z,233
2019-04-04T13:02:34.011Z,237
2019-04-04T13:03:36.155Z,230
2019-04-04T13:04:38.682Z,242
2019-04-04T13:05:40.816Z,239
2019-04-04T13:06:43.022Z,244
2019-04-04T13:07:45.522Z,239
2019-04-04T13:08:47.670Z,239
2019-04-04T13:09:49.814Z,239
2019-04-04T13:10:51.963Z,236
2019-04-04T13:11:54.133Z,237
2019-04-04T13:12:56.944Z,242
2019-04-04T13:13:59.086Z,238
2019-04-04T13:15:01.225Z,236
2019-04-04T13:16:03.375Z,229
2019-04-04T13:17:05.509Z,222
2019-04-04T13:18:07.653Z,224
2019-04-04T13:19:10.097Z,226
2019-04-04T13:20:12.539Z,222
2019-04-04T13:21:14.673Z,212
2019-04-04T13:22:16.808Z,204
2019-04-04T13:23:18.954Z,203
2019-04-04T13:24:21.166Z,206
2019-04-04T13:25:23.304Z,195
2019-04-04T13:26:25.450Z,159
2019-04-04T13:27:27.586Z,174
2019-04-04T13:28:29.714Z,160
2019-04-04T13:29:32.143Z,145
2019-04-04T13:30:34.272Z,147
2019-04-04T13:31:36.411Z,137
2019-04-04T13:32:38.824Z,149
2019-04-04T13:33:40.959Z,146
2019-04-04T13:34:43.091Z,146
2019-04-04T13:35:45.225Z,150
2019-04-04T13:36:47.939Z,141
2019-04-04T13:37:50.090Z,127
2019-04-04T13:38:55.380Z,125
2019-04-04T13:39:57.517Z,125
2019-04-04T13:40:59.655Z,126
2019-04-04T13:42:02.137Z,71
2019-04-04T13:43:04.278Z,72
2019-04-04T13:44:06.804Z,119
2019-04-04T13:45:09.231Z,152
2019-04-04T13:46:12.504Z,85
2019-04-04T13:47:14.642Z,140
2019-04-04T13:48:16.773Z,109
2019-04-04T13:49:18.913Z,137
2019-04-04T13:50:21.901Z,131
2019-04-04T13:51:33.821Z,124
2019-04-04T13:52:35.970Z,127
2019-04-04T13:53:38.109Z,124
2019-04-04T13:54:40.647Z,132
2019-04-04T13:55:43.486Z,141
2019-04-04T13:56:45.632Z,137
2019-04-04T13:57:49.498Z,129
2019-04-04T13:58:51.633Z,109
2019-04-04T13:59:53.773Z,117
2019-04-04T14:00:55.903Z,78
2019-04-04T14:01:58.340Z,78
2019-04-04T14:03:00.486Z,96
2019-04-04T14:04:05.795Z,87
2019-04-04T14:05:17.991Z,139
2019-04-04T14:06:20.193Z,148
2019-04-04T14:07:22.615Z,150
2019-04-04T14:08:25.148Z,143
2019-04-04T14:09:27.338Z,150
2019-04-04T14:10:29.476Z,162
2019-04-04T14:11:31.608Z,158
2019-04-04T14:12:33.782Z,157
2019-04-04T14:13:37.810Z,145
2019-04-04T14:14:43.747Z,133
2019-04-04T14:15:50.770Z,129
2019-04-04T14:16:58.173Z,141
2019-04-04T14:18:07.475Z,133
2019-04-04T14:19:12.789Z,122
2019-04-04T14:20:15.307Z,115
2019-04-04T14:21:17.435Z,126
2019-04-04T14:22:19.849Z,141
2019-04-04T14:23:23.143Z,147
2019-04-04T14:24:25.577Z,142
2019-04-04T14:25:31.127Z,140
2019-04-04T14:26:33.813Z,130
2019-04-04T14:27:35.957Z,134
2019-04-04T14:28:38.115Z,132
2019-04-04T14:29:41.300Z,127
2019-04-04T14:30:44.130Z,88
2019-04-04T14:31:46.279Z,67
2019-04-04T14:32:48.430Z,126
2019-04-04T14:33:50.981Z,136
2019-04-04T14:34:53.112Z,138
2019-04-04T14:35:55.243Z,135
2019-04-04T14:36:57.379Z,134
2019-04-04T14:37:59.518Z,139
2019-04-04T14:39:01.661Z,139
2019-04-04T14:40:03.813Z,133
2019-04-04T14:41:13.551Z,135
2019-04-04T14:42:15.683Z,130
2019-04-04T14:43:17.823Z,130
2019-04-04T14:44:20.265Z,129
2019-04-04T14:45:22.398Z,131
2019-04-04T14:46:24.815Z,132
2019-04-04T14:47:27.234Z,131
2019-04-04T14:48:29.442Z,129
2019-04-04T14:49:31.581Z,127
2019-04-04T14:50:33.719Z,123
2019-04-04T14:51:35.873Z,124
2019-04-04T14:52:40.995Z,127
2019-04-04T14:53:43.751Z,124
2019-04-04T14:54:46.179Z,125
2019-04-04T14:55:48.312Z,129
2019-04-04T14:56:50.534Z,129
2019-04-04T14:57:52.950Z,125